sensor_id;sensor_type;location;lat;lon;timestamp;pressure;altitude;pressure_sealevel;temperature;humidity
7660;BME280;3872;47.902;8.162;2024-02-26T00:01:05;89983.22;;;8.43;63.57
7660;BME280;3872;47.902;8.162;2024-02-26T00:03:33;89987.19;;;7.09;72.10
7660;BME280;3872;47.902;8.162;2024-02-26T00:06:01;89990.09;;;7.70;69.11
7660;BME280;3872;47.902;8.162;2024-02-26T00:08:28;89989.88;;;7.75;68.88
7660;BME280;3872;47.902;8.162;2024-02-26T00:10:56;89979.38;;;8.41;64.90
7660;BME280;3872;47.902;8.162;2024-02-26T00:13:22;89990.88;;;7.08;71.64
7660;BME280;3872;47.902;8.162;2024-02-26T00:15:49;89996.28;;;7.86;67.83
7660;BME280;3872;47.902;8.162;2024-02-26T00:18:16;89994.81;;;7.76;67.73
7660;BME280;3872;47.902;8.162;2024-02-26T00:20:43;89989.56;;;8.54;64.02
7660;BME280;3872;47.902;8.162;2024-02-26T00:23:10;90002.16;;;8.16;65.02
7660;BME280;3872;47.902;8.162;2024-02-26T00:25:37;89990.88;;;8.60;63.54
7660;BME280;3872;47.902;8.162;2024-02-26T00:28:04;89998.09;;;8.76;62.20
7660;BME280;3872;47.902;8.162;2024-02-26T00:30:31;90002.47;;;8.84;61.90
7660;BME280;3872;47.902;8.162;2024-02-26T00:32:57;89994.88;;;8.34;63.87
7660;BME280;3872;47.902;8.162;2024-02-26T00:35:24;89999.59;;;7.95;67.00
7660;BME280;3872;47.902;8.162;2024-02-26T00:37:52;90004.00;;;8.15;65.52
7660;BME280;3872;47.902;8.162;2024-02-26T00:40:19;90000.94;;;8.25;64.19
7660;BME280;3872;47.902;8.162;2024-02-26T00:42:45;90003.25;;;8.27;64.14
7660;BME280;3872;47.902;8.162;2024-02-26T00:45:13;89997.56;;;8.25;64.98
7660;BME280;3872;47.902;8.162;2024-02-26T00:47:40;89999.72;;;7.78;69.15
7660;BME280;3872;47.902;8.162;2024-02-26T00:50:08;90001.72;;;8.26;65.63
7660;BME280;3872;47.902;8.162;2024-02-26T00:52:35;89996.59;;;8.30;64.60
7660;BME280;3872;47.902;8.162;2024-02-26T00:55:04;90001.38;;;6.99;68.05
7660;BME280;3872;47.902;8.162;2024-02-26T00:57:31;89999.03;;;8.35;58.81
7660;BME280;3872;47.902;8.162;2024-02-26T00:59:59;89990.34;;;9.16;55.58
7660;BME280;3872;47.902;8.162;2024-02-26T01:02:26;89999.88;;;7.40;64.33
7660;BME280;3872;47.902;8.162;2024-02-26T01:04:52;90003.69;;;8.17;62.11
7660;BME280;3872;47.902;8.162;2024-02-26T01:07:19;89991.75;;;8.77;59.77
7660;BME280;3872;47.902;8.162;2024-02-26T01:09:46;89984.84;;;9.61;57.50
7660;BME280;3872;47.902;8.162;2024-02-26T01:12:14;89988.25;;;9.21;57.76
7660;BME280;3872;47.902;8.162;2024-02-26T01:14:41;89986.91;;;9.67;56.75
7660;BME280;3872;47.902;8.162;2024-02-26T01:17:07;89990.09;;;8.36;63.26
7660;BME280;3872;47.902;8.162;2024-02-26T01:19:34;89979.75;;;9.52;57.59
7660;BME280;3872;47.902;8.162;2024-02-26T01:22:01;89967.69;;;9.63;58.45
7660;BME280;3872;47.902;8.162;2024-02-26T01:24:28;89969.22;;;9.52;57.58
7660;BME280;3872;47.902;8.162;2024-02-26T01:26:55;89961.69;;;9.11;60.46
7660;BME280;3872;47.902;8.162;2024-02-26T01:29:23;89961.81;;;8.41;63.25
7660;BME280;3872;47.902;8.162;2024-02-26T01:31:49;89961.84;;;8.66;62.22
7660;BME280;3872;47.902;8.162;2024-02-26T01:34:16;89950.69;;;10.16;57.53
7660;BME280;3872;47.902;8.162;2024-02-26T01:36:43;89948.88;;;9.61;57.98
7660;BME280;3872;47.902;8.162;2024-02-26T01:39:11;89952.94;;;10.02;57.57
7660;BME280;3872;47.902;8.162;2024-02-26T01:41:38;89938.84;;;9.79;58.49
7660;BME280;3872;47.902;8.162;2024-02-26T01:44:04;89946.47;;;9.56;60.01
7660;BME280;3872;47.902;8.162;2024-02-26T01:46:34;89948.38;;;9.99;58.63
7660;BME280;3872;47.902;8.162;2024-02-26T01:49:02;89949.38;;;8.62;64.13
7660;BME280;3872;47.902;8.162;2024-02-26T01:51:29;89954.13;;;9.61;60.36
7660;BME280;3872;47.902;8.162;2024-02-26T01:53:57;89954.66;;;10.10;58.55
7660;BME280;3872;47.902;8.162;2024-02-26T01:56:25;89960.19;;;9.77;61.16
7660;BME280;3872;47.902;8.162;2024-02-26T01:58:57;89967.69;;;9.91;59.89
7660;BME280;3872;47.902;8.162;2024-02-26T02:01:25;89974.09;;;9.78;59.68
7660;BME280;3872;47.902;8.162;2024-02-26T02:03:56;89984.59;;;10.06;58.23
7660;BME280;3872;47.902;8.162;2024-02-26T02:06:24;89986.53;;;10.21;58.12
7660;BME280;3872;47.902;8.162;2024-02-26T02:08:52;89982.28;;;10.32;56.33
7660;BME280;3872;47.902;8.162;2024-02-26T02:11:19;89997.22;;;8.84;63.95
7660;BME280;3872;47.902;8.162;2024-02-26T02:13:46;90003.06;;;9.41;61.92
7660;BME280;3872;47.902;8.162;2024-02-26T02:16:13;90004.50;;;9.39;61.50
7660;BME280;3872;47.902;8.162;2024-02-26T02:18:40;90006.66;;;9.49;62.99
7660;BME280;3872;47.902;8.162;2024-02-26T02:21:08;90004.44;;;9.63;59.53
7660;BME280;3872;47.902;8.162;2024-02-26T02:23:34;90005.66;;;9.94;58.78
7660;BME280;3872;47.902;8.162;2024-02-26T02:26:02;90004.44;;;9.23;61.32
7660;BME280;3872;47.902;8.162;2024-02-26T02:28:29;89994.72;;;8.87;63.19
7660;BME280;3872;47.902;8.162;2024-02-26T02:30:56;89992.38;;;8.04;69.28
7660;BME280;3872;47.902;8.162;2024-02-26T02:33:26;89987.88;;;9.35;63.10
7660;BME280;3872;47.902;8.162;2024-02-26T02:35:52;89998.16;;;7.98;70.79
7660;BME280;3872;47.902;8.162;2024-02-26T02:38:21;89992.28;;;8.46;71.56
7660;BME280;3872;47.902;8.162;2024-02-26T02:40:49;89985.91;;;9.32;66.59
7660;BME280;3872;47.902;8.162;2024-02-26T02:43:15;89989.34;;;8.84;71.68
7660;BME280;3872;47.902;8.162;2024-02-26T02:45:42;89981.44;;;9.45;66.88
7660;BME280;3872;47.902;8.162;2024-02-26T02:48:08;89989.66;;;8.01;77.12
7660;BME280;3872;47.902;8.162;2024-02-26T02:50:35;89990.00;;;8.11;80.83
7660;BME280;3872;47.902;8.162;2024-02-26T02:53:02;89976.53;;;9.19;72.30
7660;BME280;3872;47.902;8.162;2024-02-26T02:55:29;89971.13;;;8.51;74.13
7660;BME280;3872;47.902;8.162;2024-02-26T02:57:56;89973.63;;;9.48;68.98
7660;BME280;3872;47.902;8.162;2024-02-26T03:00:23;89949.69;;;9.77;65.26
7660;BME280;3872;47.902;8.162;2024-02-26T03:02:50;89953.06;;;9.50;68.43
7660;BME280;3872;47.902;8.162;2024-02-26T03:05:16;89954.06;;;10.01;65.79
7660;BME280;3872;47.902;8.162;2024-02-26T03:07:43;89958.13;;;7.64;83.93
7660;BME280;3872;47.902;8.162;2024-02-26T03:10:09;89946.44;;;8.64;77.26
7660;BME280;3872;47.902;8.162;2024-02-26T03:12:37;89941.19;;;9.68;68.46
7660;BME280;3872;47.902;8.162;2024-02-26T03:15:04;89954.97;;;9.37;71.76
7660;BME280;3872;47.902;8.162;2024-02-26T03:17:31;89962.72;;;8.45;75.20
7660;BME280;3872;47.902;8.162;2024-02-26T03:19:58;89957.34;;;9.42;70.07
7660;BME280;3872;47.902;8.162;2024-02-26T03:22:24;89967.38;;;8.40;80.11
7660;BME280;3872;47.902;8.162;2024-02-26T03:24:51;89956.50;;;9.26;71.71
7660;BME280;3872;47.902;8.162;2024-02-26T03:27:17;89954.66;;;10.23;66.61
7660;BME280;3872;47.902;8.162;2024-02-26T03:29:47;89955.94;;;10.44;65.02
7660;BME280;3872;47.902;8.162;2024-02-26T03:32:14;89973.97;;;8.94;73.08
7660;BME280;3872;47.902;8.162;2024-02-26T03:34:41;89990.91;;;8.27;81.42
7660;BME280;3872;47.902;8.162;2024-02-26T03:37:08;89989.16;;;6.83;95.49
7660;BME280;3872;47.902;8.162;2024-02-26T03:39:36;89974.97;;;8.20;79.52
7660;BME280;3872;47.902;8.162;2024-02-26T03:42:03;89980.25;;;8.33;81.86
7660;BME280;3872;47.902;8.162;2024-02-26T03:44:29;89971.41;;;9.62;70.59
7660;BME280;3872;47.902;8.162;2024-02-26T03:46:57;89976.69;;;8.74;78.12
7660;BME280;3872;47.902;8.162;2024-02-26T03:49:24;89976.00;;;9.13;73.27
7660;BME280;3872;47.902;8.162;2024-02-26T03:51:50;89974.16;;;9.14;73.77
7660;BME280;3872;47.902;8.162;2024-02-26T03:54:17;89967.13;;;9.70;70.36
7660;BME280;3872;47.902;8.162;2024-02-26T03:56:43;89971.56;;;8.65;78.32
7660;BME280;3872;47.902;8.162;2024-02-26T03:59:10;89969.63;;;9.26;73.76
7660;BME280;3872;47.902;8.162;2024-02-26T04:01:36;89969.53;;;9.23;72.76
7660;BME280;3872;47.902;8.162;2024-02-26T04:04:04;89975.25;;;9.65;69.94
7660;BME280;3872;47.902;8.162;2024-02-26T04:06:31;89966.59;;;9.64;71.20
7660;BME280;3872;47.902;8.162;2024-02-26T04:08:58;89969.16;;;9.76;69.75
7660;BME280;3872;47.902;8.162;2024-02-26T04:11:24;89972.94;;;9.63;71.66
7660;BME280;3872;47.902;8.162;2024-02-26T04:13:51;89975.13;;;9.61;71.75
7660;BME280;3872;47.902;8.162;2024-02-26T04:16:17;89978.47;;;9.74;71.45
7660;BME280;3872;47.902;8.162;2024-02-26T04:18:44;89981.94;;;8.86;78.67
7660;BME280;3872;47.902;8.162;2024-02-26T04:21:12;89983.91;;;8.77;81.34
7660;BME280;3872;47.902;8.162;2024-02-26T04:23:38;89984.41;;;9.19;76.50
7660;BME280;3872;47.902;8.162;2024-02-26T04:26:05;89988.81;;;8.90;80.49
7660;BME280;3872;47.902;8.162;2024-02-26T04:28:32;89991.88;;;8.68;83.70
7660;BME280;3872;47.902;8.162;2024-02-26T04:30:58;89996.34;;;9.04;76.41
7660;BME280;3872;47.902;8.162;2024-02-26T04:33:25;89996.13;;;9.21;73.63
7660;BME280;3872;47.902;8.162;2024-02-26T04:35:51;89999.50;;;9.22;72.67
7660;BME280;3872;47.902;8.162;2024-02-26T04:38:20;90011.41;;;8.13;82.60
7660;BME280;3872;47.902;8.162;2024-02-26T04:40:47;90014.91;;;9.11;75.72
7660;BME280;3872;47.902;8.162;2024-02-26T04:43:14;90009.69;;;8.87;77.76
7660;BME280;3872;47.902;8.162;2024-02-26T04:45:43;90011.63;;;9.26;72.11
7660;BME280;3872;47.902;8.162;2024-02-26T04:48:09;90023.78;;;8.82;76.30
7660;BME280;3872;47.902;8.162;2024-02-26T04:50:36;90028.78;;;8.63;77.43
7660;BME280;3872;47.902;8.162;2024-02-26T04:53:02;90021.06;;;8.91;74.24
7660;BME280;3872;47.902;8.162;2024-02-26T04:55:30;90025.59;;;9.55;72.35
7660;BME280;3872;47.902;8.162;2024-02-26T04:57:57;90035.50;;;8.40;80.01
7660;BME280;3872;47.902;8.162;2024-02-26T05:00:24;90040.53;;;8.12;83.78
7660;BME280;3872;47.902;8.162;2024-02-26T05:02:51;90036.47;;;8.80;81.67
7660;BME280;3872;47.902;8.162;2024-02-26T05:05:17;90048.00;;;8.55;81.95
7660;BME280;3872;47.902;8.162;2024-02-26T05:07:44;90048.59;;;9.33;75.83
7660;BME280;3872;47.902;8.162;2024-02-26T05:10:12;90052.88;;;8.11;86.63
7660;BME280;3872;47.902;8.162;2024-02-26T05:12:41;90066.44;;;7.93;90.29
7660;BME280;3872;47.902;8.162;2024-02-26T05:15:09;90059.72;;;8.04;89.43
7660;BME280;3872;47.902;8.162;2024-02-26T05:17:35;90062.66;;;8.68;79.73
7660;BME280;3872;47.902;8.162;2024-02-26T05:20:02;90049.69;;;9.45;73.02
7660;BME280;3872;47.902;8.162;2024-02-26T05:22:33;90049.91;;;9.27;74.52
7660;BME280;3872;47.902;8.162;2024-02-26T05:25:00;90040.06;;;9.12;74.67
7660;BME280;3872;47.902;8.162;2024-02-26T05:27:26;90041.06;;;9.20;74.86
7660;BME280;3872;47.902;8.162;2024-02-26T05:29:54;90045.84;;;9.18;73.18
7660;BME280;3872;47.902;8.162;2024-02-26T05:32:22;90036.69;;;8.87;74.02
7660;BME280;3872;47.902;8.162;2024-02-26T05:34:49;90048.22;;;8.62;75.56
7660;BME280;3872;47.902;8.162;2024-02-26T05:37:15;90051.06;;;7.91;85.29
7660;BME280;3872;47.902;8.162;2024-02-26T05:39:42;90052.94;;;8.23;80.47
7660;BME280;3872;47.902;8.162;2024-02-26T05:42:09;90046.97;;;8.35;80.64
7660;BME280;3872;47.902;8.162;2024-02-26T05:44:36;90044.31;;;8.68;77.07
7660;BME280;3872;47.902;8.162;2024-02-26T05:47:04;90043.03;;;8.98;75.08
7660;BME280;3872;47.902;8.162;2024-02-26T05:49:31;90042.66;;;9.49;71.41
7660;BME280;3872;47.902;8.162;2024-02-26T05:51:58;90040.72;;;9.73;70.14
7660;BME280;3872;47.902;8.162;2024-02-26T05:54:26;90044.13;;;9.74;69.53
7660;BME280;3872;47.902;8.162;2024-02-26T05:56:53;90052.50;;;9.52;70.08
7660;BME280;3872;47.902;8.162;2024-02-26T05:59:19;90060.88;;;8.15;84.48
7660;BME280;3872;47.902;8.162;2024-02-26T06:01:46;90055.81;;;9.12;74.72
7660;BME280;3872;47.902;8.162;2024-02-26T06:04:13;90056.56;;;9.49;72.64
7660;BME280;3872;47.902;8.162;2024-02-26T06:06:40;90050.50;;;9.61;70.34
7660;BME280;3872;47.902;8.162;2024-02-26T06:09:07;90055.41;;;9.74;69.94
7660;BME280;3872;47.902;8.162;2024-02-26T06:11:33;90057.91;;;8.94;75.58
7660;BME280;3872;47.902;8.162;2024-02-26T06:14:00;90067.03;;;7.36;98.05
7660;BME280;3872;47.902;8.162;2024-02-26T06:16:27;90061.31;;;8.17;93.19
7660;BME280;3872;47.902;8.162;2024-02-26T06:18:56;90055.91;;;9.28;78.98
7660;BME280;3872;47.902;8.162;2024-02-26T06:21:24;90050.47;;;9.21;78.63
7660;BME280;3872;47.902;8.162;2024-02-26T06:23:51;90054.59;;;9.58;74.72
7660;BME280;3872;47.902;8.162;2024-02-26T06:26:18;90051.31;;;9.25;74.68
7660;BME280;3872;47.902;8.162;2024-02-26T06:28:44;90058.50;;;9.64;73.87
7660;BME280;3872;47.902;8.162;2024-02-26T06:31:11;90054.94;;;9.85;71.88
7660;BME280;3872;47.902;8.162;2024-02-26T06:33:37;90055.66;;;9.57;73.28
7660;BME280;3872;47.902;8.162;2024-02-26T06:36:04;90051.38;;;10.05;70.45
7660;BME280;3872;47.902;8.162;2024-02-26T06:38:33;90057.25;;;9.86;71.43
7660;BME280;3872;47.902;8.162;2024-02-26T06:40:59;90065.94;;;9.62;74.20
7660;BME280;3872;47.902;8.162;2024-02-26T06:43:29;90062.06;;;9.84;72.26
7660;BME280;3872;47.902;8.162;2024-02-26T06:45:55;90059.25;;;9.77;73.35
7660;BME280;3872;47.902;8.162;2024-02-26T06:48:23;90061.41;;;9.75;73.89
7660;BME280;3872;47.902;8.162;2024-02-26T06:50:49;90060.50;;;9.19;79.12
7660;BME280;3872;47.902;8.162;2024-02-26T06:53:16;90062.78;;;9.57;76.55
7660;BME280;3872;47.902;8.162;2024-02-26T06:55:44;90059.09;;;9.09;82.39
7660;BME280;3872;47.902;8.162;2024-02-26T06:58:10;90064.56;;;9.16;81.71
7660;BME280;3872;47.902;8.162;2024-02-26T07:00:37;90060.75;;;9.14;80.34
7660;BME280;3872;47.902;8.162;2024-02-26T07:03:04;90060.72;;;9.38;78.35
7660;BME280;3872;47.902;8.162;2024-02-26T07:05:31;90055.00;;;9.60;76.03
7660;BME280;3872;47.902;8.162;2024-02-26T07:07:57;90051.16;;;9.70;75.67
7660;BME280;3872;47.902;8.162;2024-02-26T07:10:24;90054.63;;;9.74;74.19
7660;BME280;3872;47.902;8.162;2024-02-26T07:12:52;90054.38;;;9.02;80.06
7660;BME280;3872;47.902;8.162;2024-02-26T07:15:18;90050.09;;;9.59;76.50
7660;BME280;3872;47.902;8.162;2024-02-26T07:17:45;90051.81;;;9.67;73.95
7660;BME280;3872;47.902;8.162;2024-02-26T07:20:13;90050.34;;;9.29;77.01
7660;BME280;3872;47.902;8.162;2024-02-26T07:22:40;90050.47;;;9.09;78.36
7660;BME280;3872;47.902;8.162;2024-02-26T07:25:08;90052.97;;;9.41;75.50
7660;BME280;3872;47.902;8.162;2024-02-26T07:27:38;90048.78;;;9.53;75.30
7660;BME280;3872;47.902;8.162;2024-02-26T07:30:07;90057.25;;;9.86;73.37
7660;BME280;3872;47.902;8.162;2024-02-26T07:32:34;90064.91;;;9.91;71.73
7660;BME280;3872;47.902;8.162;2024-02-26T07:35:01;90063.97;;;9.59;73.75
7660;BME280;3872;47.902;8.162;2024-02-26T07:37:27;90076.69;;;9.57;74.37
7660;BME280;3872;47.902;8.162;2024-02-26T07:39:54;90085.72;;;8.75;80.93
7660;BME280;3872;47.902;8.162;2024-02-26T07:42:20;90095.88;;;7.69;92.13
7660;BME280;3872;47.902;8.162;2024-02-26T07:44:47;90095.19;;;8.55;86.29
7660;BME280;3872;47.902;8.162;2024-02-26T07:47:15;90094.94;;;8.48;84.27
7660;BME280;3872;47.902;8.162;2024-02-26T07:49:41;90090.72;;;7.60;93.78
7660;BME280;3872;47.902;8.162;2024-02-26T07:52:08;90099.22;;;9.22;80.03
7660;BME280;3872;47.902;8.162;2024-02-26T07:54:34;90084.22;;;9.59;76.28
7660;BME280;3872;47.902;8.162;2024-02-26T07:57:01;90088.47;;;8.90;78.28
7660;BME280;3872;47.902;8.162;2024-02-26T07:59:30;90098.84;;;6.79;100.00
7660;BME280;3872;47.902;8.162;2024-02-26T08:01:57;90100.88;;;8.03;100.00
7660;BME280;3872;47.902;8.162;2024-02-26T08:04:25;90098.28;;;8.69;93.51
7660;BME280;3872;47.902;8.162;2024-02-26T08:06:52;90104.16;;;9.23;82.72
7660;BME280;3872;47.902;8.162;2024-02-26T08:09:18;90108.06;;;8.81;85.99
7660;BME280;3872;47.902;8.162;2024-02-26T08:11:45;90104.56;;;9.13;83.14
7660;BME280;3872;47.902;8.162;2024-02-26T08:14:12;90105.22;;;9.47;77.93
7660;BME280;3872;47.902;8.162;2024-02-26T08:16:39;90098.91;;;9.23;80.56
7660;BME280;3872;47.902;8.162;2024-02-26T08:19:05;90088.63;;;8.94;82.23
7660;BME280;3872;47.902;8.162;2024-02-26T08:21:33;90089.38;;;9.31;79.99
7660;BME280;3872;47.902;8.162;2024-02-26T08:24:00;90083.56;;;9.62;77.71
7660;BME280;3872;47.902;8.162;2024-02-26T08:26:26;90081.28;;;10.00;75.20
7660;BME280;3872;47.902;8.162;2024-02-26T08:28:53;90094.00;;;7.78;99.25
7660;BME280;3872;47.902;8.162;2024-02-26T08:31:21;90096.16;;;7.76;100.00
7660;BME280;3872;47.902;8.162;2024-02-26T08:33:48;90085.75;;;8.99;90.91
7660;BME280;3872;47.902;8.162;2024-02-26T08:36:15;90084.88;;;10.08;77.87
7660;BME280;3872;47.902;8.162;2024-02-26T08:38:43;90095.06;;;9.21;85.76
7660;BME280;3872;47.902;8.162;2024-02-26T08:41:09;90080.94;;;10.70;74.66
7660;BME280;3872;47.902;8.162;2024-02-26T08:43:36;90083.16;;;11.30;69.50
7660;BME280;3872;47.902;8.162;2024-02-26T08:46:03;90101.72;;;9.06;86.57
7660;BME280;3872;47.902;8.162;2024-02-26T08:48:29;90098.69;;;11.04;72.90
7660;BME280;3872;47.902;8.162;2024-02-26T08:50:56;90089.72;;;11.05;67.78
7660;BME280;3872;47.902;8.162;2024-02-26T08:53:22;90092.25;;;11.33;68.78
7660;BME280;3872;47.902;8.162;2024-02-26T08:55:51;90092.47;;;11.75;67.42
7660;BME280;3872;47.902;8.162;2024-02-26T08:58:17;90094.72;;;11.26;67.31
7660;BME280;3872;47.902;8.162;2024-02-26T09:00:44;90095.63;;;11.65;67.93
7660;BME280;3872;47.902;8.162;2024-02-26T09:03:11;90088.38;;;11.93;67.38
7660;BME280;3872;47.902;8.162;2024-02-26T09:05:38;90090.25;;;10.67;76.71
7660;BME280;3872;47.902;8.162;2024-02-26T09:08:06;90094.63;;;10.91;71.94
7660;BME280;3872;47.902;8.162;2024-02-26T09:10:33;90098.47;;;9.98;88.95
7660;BME280;3872;47.902;8.162;2024-02-26T09:13:04;90097.75;;;12.10;70.57
7660;BME280;3872;47.902;8.162;2024-02-26T09:15:32;90091.00;;;12.89;63.66
7660;BME280;3872;47.902;8.162;2024-02-26T09:17:58;90096.91;;;12.83;62.33
7660;BME280;3872;47.902;8.162;2024-02-26T09:20:25;90101.31;;;11.67;67.69
7660;BME280;3872;47.902;8.162;2024-02-26T09:22:51;90103.56;;;10.74;71.49
7660;BME280;3872;47.902;8.162;2024-02-26T09:25:18;90107.25;;;10.42;81.20
7660;BME280;3872;47.902;8.162;2024-02-26T09:27:46;90099.66;;;10.68;74.01
7660;BME280;3872;47.902;8.162;2024-02-26T09:30:14;90094.78;;;11.76;69.32
7660;BME280;3872;47.902;8.162;2024-02-26T09:32:46;90106.78;;;12.28;64.72
7660;BME280;3872;47.902;8.162;2024-02-26T09:35:13;90118.13;;;12.48;65.47
7660;BME280;3872;47.902;8.162;2024-02-26T09:37:40;90125.88;;;11.55;71.80
7660;BME280;3872;47.902;8.162;2024-02-26T09:40:10;90117.56;;;11.06;74.76
7660;BME280;3872;47.902;8.162;2024-02-26T09:42:41;90117.69;;;10.82;77.74
7660;BME280;3872;47.902;8.162;2024-02-26T09:45:11;90118.34;;;13.01;62.79
7660;BME280;3872;47.902;8.162;2024-02-26T09:47:40;90106.38;;;13.75;60.01
7660;BME280;3872;47.902;8.162;2024-02-26T09:50:09;90121.09;;;12.46;63.74
7660;BME280;3872;47.902;8.162;2024-02-26T09:52:41;90119.59;;;13.75;61.52
7660;BME280;3872;47.902;8.162;2024-02-26T09:55:08;90122.81;;;12.39;66.45
7660;BME280;3872;47.902;8.162;2024-02-26T09:57:36;90121.25;;;14.09;57.99
7660;BME280;3872;47.902;8.162;2024-02-26T10:00:04;90126.22;;;12.39;65.35
7660;BME280;3872;47.902;8.162;2024-02-26T10:02:35;90131.84;;;11.36;74.79
7660;BME280;3872;47.902;8.162;2024-02-26T10:05:04;90122.25;;;12.87;66.98
7660;BME280;3872;47.902;8.162;2024-02-26T10:07:34;90121.75;;;13.92;59.43
7660;BME280;3872;47.902;8.162;2024-02-26T10:10:02;90123.56;;;13.88;60.65
7660;BME280;3872;47.902;8.162;2024-02-26T10:12:29;90117.34;;;13.28;60.46
7660;BME280;3872;47.902;8.162;2024-02-26T10:14:57;90126.63;;;13.41;60.31
7660;BME280;3872;47.902;8.162;2024-02-26T10:17:24;90127.63;;;13.56;63.08
7660;BME280;3872;47.902;8.162;2024-02-26T10:19:51;90110.88;;;13.97;61.73
7660;BME280;3872;47.902;8.162;2024-02-26T10:22:23;90112.94;;;14.11;64.33
7660;BME280;3872;47.902;8.162;2024-02-26T10:24:49;90117.31;;;14.53;62.01
7660;BME280;3872;47.902;8.162;2024-02-26T10:27:18;90120.03;;;15.26;59.39
7660;BME280;3872;47.902;8.162;2024-02-26T10:29:45;90127.44;;;14.47;61.12
7660;BME280;3872;47.902;8.162;2024-02-26T10:32:12;90125.09;;;14.16;62.14
7660;BME280;3872;47.902;8.162;2024-02-26T10:34:39;90114.16;;;15.91;58.54
7660;BME280;3872;47.902;8.162;2024-02-26T10:37:07;90115.91;;;14.96;55.98
7660;BME280;3872;47.902;8.162;2024-02-26T10:39:36;90113.81;;;15.96;55.60
7660;BME280;3872;47.902;8.162;2024-02-26T10:42:03;90116.03;;;15.87;52.71
7660;BME280;3872;47.902;8.162;2024-02-26T10:44:35;90121.38;;;15.94;53.33
7660;BME280;3872;47.902;8.162;2024-02-26T10:47:01;90139.84;;;15.40;54.97
7660;BME280;3872;47.902;8.162;2024-02-26T10:49:28;90146.66;;;16.36;53.66
7660;BME280;3872;47.902;8.162;2024-02-26T10:51:55;90146.44;;;16.55;54.77
7660;BME280;3872;47.902;8.162;2024-02-26T10:54:24;90136.63;;;17.81;51.08
7660;BME280;3872;47.902;8.162;2024-02-26T10:56:56;90143.44;;;17.79;48.51
7660;BME280;3872;47.902;8.162;2024-02-26T10:59:23;90144.56;;;17.64;47.15
7660;BME280;3872;47.902;8.162;2024-02-26T11:01:50;90149.47;;;17.54;44.59
7660;BME280;3872;47.902;8.162;2024-02-26T11:04:18;90151.69;;;16.52;50.47
7660;BME280;3872;47.902;8.162;2024-02-26T11:06:45;90155.47;;;17.27;48.13
7660;BME280;3872;47.902;8.162;2024-02-26T11:09:13;90157.72;;;17.21;45.33
7660;BME280;3872;47.902;8.162;2024-02-26T11:11:42;90163.03;;;17.17;44.55
7660;BME280;3872;47.902;8.162;2024-02-26T11:14:11;90175.28;;;17.40;46.85
7660;BME280;3872;47.902;8.162;2024-02-26T11:16:39;90169.47;;;16.44;43.37
7660;BME280;3872;47.902;8.162;2024-02-26T11:19:06;90172.41;;;16.87;42.67
7660;BME280;3872;47.902;8.162;2024-02-26T11:21:36;90173.97;;;16.95;42.09
7660;BME280;3872;47.902;8.162;2024-02-26T11:24:10;90171.47;;;17.48;42.74
7660;BME280;3872;47.902;8.162;2024-02-26T11:26:40;90167.47;;;16.89;44.50
7660;BME280;3872;47.902;8.162;2024-02-26T11:29:14;90163.72;;;16.97;50.41
7660;BME280;3872;47.902;8.162;2024-02-26T11:31:42;90161.97;;;17.36;48.89
7660;BME280;3872;47.902;8.162;2024-02-26T11:34:09;90165.47;;;17.65;44.63
7660;BME280;3872;47.902;8.162;2024-02-26T11:36:38;90166.88;;;17.34;48.25
7660;BME280;3872;47.902;8.162;2024-02-26T11:39:06;90161.63;;;17.52;46.39
7660;BME280;3872;47.902;8.162;2024-02-26T11:41:32;90149.47;;;17.51;45.80
7660;BME280;3872;47.902;8.162;2024-02-26T11:44:00;90153.72;;;18.09;48.90
7660;BME280;3872;47.902;8.162;2024-02-26T11:46:30;90148.34;;;18.76;43.34
7660;BME280;3872;47.902;8.162;2024-02-26T11:49:01;90154.06;;;18.50;41.05
7660;BME280;3872;47.902;8.162;2024-02-26T11:51:32;90155.97;;;18.42;43.17
7660;BME280;3872;47.902;8.162;2024-02-26T11:53:59;90145.34;;;17.92;39.76
7660;BME280;3872;47.902;8.162;2024-02-26T11:56:27;90147.63;;;17.83;43.75
7660;BME280;3872;47.902;8.162;2024-02-26T11:59:00;90153.34;;;17.75;41.42
7660;BME280;3872;47.902;8.162;2024-02-26T12:01:42;90143.78;;;17.52;41.37
7660;BME280;3872;47.902;8.162;2024-02-26T12:04:13;90149.50;;;17.65;39.86
7660;BME280;3872;47.902;8.162;2024-02-26T12:06:50;90150.66;;;17.85;43.18
7660;BME280;3872;47.902;8.162;2024-02-26T12:09:37;90147.25;;;17.88;40.68
7660;BME280;3872;47.902;8.162;2024-02-26T12:12:05;90155.44;;;17.16;43.08
7660;BME280;3872;47.902;8.162;2024-02-26T12:14:33;90148.50;;;16.83;44.04
7660;BME280;3872;47.902;8.162;2024-02-26T12:17:02;90147.91;;;16.53;47.08
7660;BME280;3872;47.902;8.162;2024-02-26T12:19:32;90142.81;;;16.88;44.31
7660;BME280;3872;47.902;8.162;2024-02-26T12:21:59;90143.88;;;16.73;44.08
7660;BME280;3872;47.902;8.162;2024-02-26T12:24:25;90147.63;;;17.76;45.32
7660;BME280;3872;47.902;8.162;2024-02-26T12:26:53;90148.25;;;17.27;46.31
7660;BME280;3872;47.902;8.162;2024-02-26T12:29:20;90138.06;;;17.47;44.17
7660;BME280;3872;47.902;8.162;2024-02-26T12:31:47;90147.28;;;16.73;43.66
7660;BME280;3872;47.902;8.162;2024-02-26T12:34:15;90153.94;;;15.51;46.45
7660;BME280;3872;47.902;8.162;2024-02-26T12:36:42;90148.16;;;16.26;45.33
7660;BME280;3872;47.902;8.162;2024-02-26T12:39:09;90144.28;;;16.17;44.45
7660;BME280;3872;47.902;8.162;2024-02-26T12:41:37;90153.81;;;16.25;45.16
7660;BME280;3872;47.902;8.162;2024-02-26T12:44:04;90153.16;;;17.14;42.87
7660;BME280;3872;47.902;8.162;2024-02-26T12:46:32;90162.34;;;15.97;45.57
7660;BME280;3872;47.902;8.162;2024-02-26T12:48:58;90158.78;;;16.99;42.10
7660;BME280;3872;47.902;8.162;2024-02-26T12:51:26;90154.00;;;17.43;42.96
7660;BME280;3872;47.902;8.162;2024-02-26T12:53:55;90151.50;;;16.81;43.59
7660;BME280;3872;47.902;8.162;2024-02-26T12:56:22;90143.75;;;16.52;46.61
7660;BME280;3872;47.902;8.162;2024-02-26T12:58:50;90144.53;;;15.97;46.71
7660;BME280;3872;47.902;8.162;2024-02-26T13:01:22;90146.75;;;14.77;47.55
7660;BME280;3872;47.902;8.162;2024-02-26T13:03:49;90138.81;;;16.57;44.63
7660;BME280;3872;47.902;8.162;2024-02-26T13:06:17;90146.28;;;17.06;43.56
7660;BME280;3872;47.902;8.162;2024-02-26T13:08:46;90145.50;;;16.95;43.52
7660;BME280;3872;47.902;8.162;2024-02-26T13:11:15;90144.59;;;16.08;44.08
7660;BME280;3872;47.902;8.162;2024-02-26T13:13:42;90145.97;;;15.51;45.75
7660;BME280;3872;47.902;8.162;2024-02-26T13:16:14;90153.91;;;15.10;45.85
7660;BME280;3872;47.902;8.162;2024-02-26T13:18:41;90149.38;;;16.39;42.84
7660;BME280;3872;47.902;8.162;2024-02-26T13:21:09;90157.22;;;16.87;42.51
7660;BME280;3872;47.902;8.162;2024-02-26T13:23:37;90157.22;;;16.87;41.32
7660;BME280;3872;47.902;8.162;2024-02-26T13:26:05;90148.78;;;18.28;39.83
7660;BME280;3872;47.902;8.162;2024-02-26T13:28:32;90154.38;;;17.38;40.78
7660;BME280;3872;47.902;8.162;2024-02-26T13:31:00;90147.94;;;17.46;40.30